Wall Lake, Indiana
Current Conditions -  °F | °C
As of 9:55 AM on Monday 26 Jan 2015 (Local Time) from KANQ Reporting Station
Clear Clear  
Wind Chill:   Ceiling: Unl
Heat Index: 10°   Visibility: 10mi
Dew Point:   Wind: 5mph
Humidity: 85%   Direction: 40°NE
Pressure: 29.93"   Gusts: NA
Location:  41.7299°N, 85.1413°W
Report Text: KANQ 261455Z AUTO 04004KT 10SM CLR M12/M14 A2993 RMK
Loading
Personal Weather Stations






























Interactive Weather Map New forecast layout! Learn more

10-Day Weather Forecast

Advertisements
Track Severe Weather on mobile